Terminal Aerodrome Forecast
Issued by NWS Sioux Falls, SD

Home | Current Version | Previous Version | Graphics & Text | Print | Product List | Glossary On
Versions: 1 2 3 4 5 6 7 8 9 10 11 12 13 14 15 16 17 18 19 20 21 22 23 24 25 26 27 28
000
FTUS43 KFSD 192300
TAFFSD
TAF
KFSD 192320Z 2000/2024 16009KT P6SM SCT035 SCT120 BKN200
     FM200500 18010KT P6SM SCT250
     FM201500 18012KT P6SM SCT015
     FM201800 19015G22KT P6SM SCT030=

USA.gov is the U.S. government's official web portal to all federal, state and local government web resources and services.